sensor_id;sensor_type;location;lat;lon;timestamp;pressure;altitude;pressure_sealevel;temperature;humidity
11440;BME280;5776;51.814;4.510;2022-11-18T00:02:21;99435.84;;;9.82;100.00
11440;BME280;5776;51.814;4.510;2022-11-18T00:04:47;99439.69;;;9.81;100.00
11440;BME280;5776;51.814;4.510;2022-11-18T00:07:13;99436.50;;;9.79;100.00
11440;BME280;5776;51.814;4.510;2022-11-18T00:09:38;99445.72;;;9.78;100.00
11440;BME280;5776;51.814;4.510;2022-11-18T00:12:04;99444.94;;;9.77;100.00
11440;BME280;5776;51.814;4.510;2022-11-18T00:14:49;99447.16;;;9.75;100.00
11440;BME280;5776;51.814;4.510;2022-11-18T00:17:14;99455.00;;;9.77;100.00
11440;BME280;5776;51.814;4.510;2022-11-18T00:19:40;99450.69;;;9.76;100.00
11440;BME280;5776;51.814;4.510;2022-11-18T00:22:10;99452.91;;;9.73;100.00
11440;BME280;5776;51.814;4.510;2022-11-18T00:24:37;99462.63;;;9.74;100.00
11440;BME280;5776;51.814;4.510;2022-11-18T00:27:03;99466.47;;;9.73;100.00
11440;BME280;5776;51.814;4.510;2022-11-18T00:29:29;99472.19;;;9.72;100.00
11440;BME280;5776;51.814;4.510;2022-11-18T00:31:56;99467.06;;;9.70;100.00
11440;BME280;5776;51.814;4.510;2022-11-18T00:34:23;99482.25;;;9.71;100.00
11440;BME280;5776;51.814;4.510;2022-11-18T00:36:49;99483.34;;;9.70;100.00
11440;BME280;5776;51.814;4.510;2022-11-18T00:39:17;99483.69;;;9.69;100.00
11440;BME280;5776;51.814;4.510;2022-11-18T00:41:44;99483.19;;;9.67;100.00
11440;BME280;5776;51.814;4.510;2022-11-18T00:44:29;99482.41;;;9.66;100.00
11440;BME280;5776;51.814;4.510;2022-11-18T00:46:56;99485.41;;;9.65;100.00
11440;BME280;5776;51.814;4.510;2022-11-18T00:49:22;99490.84;;;9.65;100.00
11440;BME280;5776;51.814;4.510;2022-11-18T00:51:48;99496.25;;;9.65;100.00
11440;BME280;5776;51.814;4.510;2022-11-18T00:54:14;99488.91;;;9.65;100.00
11440;BME280;5776;51.814;4.510;2022-11-18T00:56:40;99501.69;;;9.65;100.00
11440;BME280;5776;51.814;4.510;2022-11-18T00:59:06;99505.50;;;9.64;100.00
11440;BME280;5776;51.814;4.510;2022-11-18T01:01:32;99511.25;;;9.62;100.00
11440;BME280;5776;51.814;4.510;2022-11-18T01:03:58;99510.44;;;9.62;100.00
11440;BME280;5776;51.814;4.510;2022-11-18T01:06:24;99514.56;;;9.59;100.00
11440;BME280;5776;51.814;4.510;2022-11-18T01:08:50;99516.50;;;9.59;100.00
11440;BME280;5776;51.814;4.510;2022-11-18T01:11:16;99514.56;;;9.59;100.00
11440;BME280;5776;51.814;4.510;2022-11-18T01:14:01;99516.50;;;9.59;100.00
11440;BME280;5776;51.814;4.510;2022-11-18T01:16:27;99518.09;;;9.60;100.00
11440;BME280;5776;51.814;4.510;2022-11-18T01:18:54;99519.22;;;9.59;100.00
11440;BME280;5776;51.814;4.510;2022-11-18T01:21:20;99532.75;;;9.59;100.00
11440;BME280;5776;51.814;4.510;2022-11-18T01:23:46;99529.56;;;9.57;100.00
11440;BME280;5776;51.814;4.510;2022-11-18T01:26:14;99543.09;;;9.57;100.00
11440;BME280;5776;51.814;4.510;2022-11-18T01:28:40;99536.41;;;9.54;100.00
11440;BME280;5776;51.814;4.510;2022-11-18T01:31:14;99540.69;;;9.55;100.00
11440;BME280;5776;51.814;4.510;2022-11-18T01:33:41;99538.00;;;9.55;100.00
11440;BME280;5776;51.814;4.510;2022-11-18T01:36:15;99551.53;;;9.55;100.00
11440;BME280;5776;51.814;4.510;2022-11-18T01:38:41;99554.59;;;9.54;100.00
11440;BME280;5776;51.814;4.510;2022-11-18T01:41:07;99560.00;;;9.54;100.00
11440;BME280;5776;51.814;4.510;2022-11-18T01:43:50;99561.91;;;9.53;100.00
11440;BME280;5776;51.814;4.510;2022-11-18T01:46:17;99563.00;;;9.52;100.00
11440;BME280;5776;51.814;4.510;2022-11-18T01:48:44;99566.84;;;9.51;100.00
11440;BME280;5776;51.814;4.510;2022-11-18T01:51:15;99572.28;;;9.51;100.00
11440;BME280;5776;51.814;4.510;2022-11-18T01:53:58;99574.97;;;9.51;100.00
11440;BME280;5776;51.814;4.510;2022-11-18T01:56:32;99567.94;;;9.50;100.00
11440;BME280;5776;51.814;4.510;2022-11-18T01:59:05;99566.97;;;9.46;100.00
11440;BME280;5776;51.814;4.510;2022-11-18T02:01:32;99569.69;;;9.46;100.00
11440;BME280;5776;51.814;4.510;2022-11-18T02:03:58;99573.50;;;9.45;100.00
11440;BME280;5776;51.814;4.510;2022-11-18T02:06:25;99573.19;;;9.46;100.00
11440;BME280;5776;51.814;4.510;2022-11-18T02:08:51;99578.13;;;9.44;100.00
11440;BME280;5776;51.814;4.510;2022-11-18T02:11:17;99581.13;;;9.43;100.00
11440;BME280;5776;51.814;4.510;2022-11-18T02:14:03;99577.97;;;9.41;100.00
11440;BME280;5776;51.814;4.510;2022-11-18T02:31:04;99609.31;;;9.33;100.00
11440;BME280;5776;51.814;4.510;2022-11-18T02:33:44;99608.50;;;9.33;100.00
11440;BME280;5776;51.814;4.510;2022-11-18T02:36:40;99615.03;;;9.32;100.00
11440;BME280;5776;51.814;4.510;2022-11-18T02:39:15;99614.53;;;9.29;100.00
11440;BME280;5776;51.814;4.510;2022-11-18T02:41:44;99618.38;;;9.28;100.00
11440;BME280;5776;51.814;4.510;2022-11-18T02:44:14;99626.16;;;9.30;100.00
11440;BME280;5776;51.814;4.510;2022-11-18T02:46:44;99626.50;;;9.28;100.00
11440;BME280;5776;51.814;4.510;2022-11-18T02:49:24;99615.66;;;9.28;100.00
11440;BME280;5776;51.814;4.510;2022-11-18T02:51:52;99624.59;;;9.29;100.00
11440;BME280;5776;51.814;4.510;2022-11-18T02:54:21;99626.50;;;9.28;100.00
11440;BME280;5776;51.814;4.510;2022-11-18T02:56:49;99627.59;;;9.27;100.00
11440;BME280;5776;51.814;4.510;2022-11-18T02:59:17;99633.00;;;9.27;100.00
11440;BME280;5776;51.814;4.510;2022-11-18T03:01:44;99634.41;;;9.25;100.00
11440;BME280;5776;51.814;4.510;2022-11-18T03:04:11;99627.41;;;9.24;100.00
11440;BME280;5776;51.814;4.510;2022-11-18T03:06:54;99632.03;;;9.23;100.00
11440;BME280;5776;51.814;4.510;2022-11-18T03:09:34;99635.53;;;9.24;100.00
11440;BME280;5776;51.814;4.510;2022-11-18T03:14:49;99639.66;;;9.21;100.00
11440;BME280;5776;51.814;4.510;2022-11-18T03:28:00;99656.03;;;9.16;100.00
11440;BME280;5776;51.814;4.510;2022-11-18T03:30:31;99653.63;;;9.15;100.00
11440;BME280;5776;51.814;4.510;2022-11-18T03:33:04;99650.13;;;9.14;100.00
11440;BME280;5776;51.814;4.510;2022-11-18T03:35:34;99658.75;;;9.16;100.00
11440;BME280;5776;51.814;4.510;2022-11-18T03:38:08;99652.84;;;9.14;100.00
11440;BME280;5776;51.814;4.510;2022-11-18T03:40:37;99659.53;;;9.17;100.00
11440;BME280;5776;51.814;4.510;2022-11-18T03:43:10;99658.25;;;9.14;100.00
11440;BME280;5776;51.814;4.510;2022-11-18T03:46:18;99667.69;;;9.17;100.00
11440;BME280;5776;51.814;4.510;2022-11-18T03:48:51;99662.25;;;9.17;100.00
11440;BME280;5776;51.814;4.510;2022-11-18T03:51:26;99665.75;;;9.17;100.00
11440;BME280;5776;51.814;4.510;2022-11-18T03:54:02;99669.59;;;9.16;100.00
11440;BME280;5776;51.814;4.510;2022-11-18T03:56:35;99675.00;;;9.16;100.00
11440;BME280;5776;51.814;4.510;2022-11-18T03:59:25;99680.44;;;9.16;100.00
11440;BME280;5776;51.814;4.510;2022-11-18T04:04:28;99682.63;;;9.14;100.00
11440;BME280;5776;51.814;4.510;2022-11-18T04:07:22;99688.06;;;9.14;100.00
11440;BME280;5776;51.814;4.510;2022-11-18T04:09:55;99694.25;;;9.15;100.00
11440;BME280;5776;51.814;4.510;2022-11-18T04:12:24;99698.88;;;9.14;100.00
11440;BME280;5776;51.814;4.510;2022-11-18T04:14:52;99700.00;;;9.13;100.00
11440;BME280;5776;51.814;4.510;2022-11-18T04:17:22;99712.72;;;9.13;100.00
11440;BME280;5776;51.814;4.510;2022-11-18T04:19:48;99713.06;;;9.11;100.00
11440;BME280;5776;51.814;4.510;2022-11-18T04:22:14;99713.56;;;9.13;100.00
11440;BME280;5776;51.814;4.510;2022-11-18T04:24:40;99708.44;;;9.12;100.00
11440;BME280;5776;51.814;4.510;2022-11-18T04:27:06;99714.97;;;9.11;100.00
11440;BME280;5776;51.814;4.510;2022-11-18T04:29:33;99719.25;;;9.12;100.00
11440;BME280;5776;51.814;4.510;2022-11-18T04:32:00;99717.66;;;9.11;100.00
11440;BME280;5776;51.814;4.510;2022-11-18T04:34:26;99733.09;;;9.10;100.00
11440;BME280;5776;51.814;4.510;2022-11-18T04:36:53;99729.59;;;9.09;100.00
11440;BME280;5776;51.814;4.510;2022-11-18T04:39:19;99732.31;;;9.09;100.00
11440;BME280;5776;51.814;4.510;2022-11-18T04:41:45;99735.00;;;9.09;100.00
11440;BME280;5776;51.814;4.510;2022-11-18T04:44:31;99739.63;;;9.09;100.00
11440;BME280;5776;51.814;4.510;2022-11-18T04:46:59;99746.16;;;9.08;100.00
11440;BME280;5776;51.814;4.510;2022-11-18T04:49:26;99748.06;;;9.07;100.00
11440;BME280;5776;51.814;4.510;2022-11-18T04:51:52;99748.06;;;9.07;100.00
11440;BME280;5776;51.814;4.510;2022-11-18T04:54:19;99751.88;;;9.06;100.00
11440;BME280;5776;51.814;4.510;2022-11-18T04:56:46;99755.38;;;9.07;100.00
11440;BME280;5776;51.814;4.510;2022-11-18T04:59:13;99765.41;;;9.06;100.00
11440;BME280;5776;51.814;4.510;2022-11-18T05:01:39;99765.41;;;9.06;100.00
11440;BME280;5776;51.814;4.510;2022-11-18T05:04:05;99760.28;;;9.05;100.00
11440;BME280;5776;51.814;4.510;2022-11-18T05:06:33;99764.91;;;9.04;100.00
11440;BME280;5776;51.814;4.510;2022-11-18T05:09:00;99763.31;;;9.03;100.00
11440;BME280;5776;51.814;4.510;2022-11-18T05:11:26;99767.94;;;9.03;100.00
11440;BME280;5776;51.814;4.510;2022-11-18T05:14:11;99770.16;;;9.01;100.00
11440;BME280;5776;51.814;4.510;2022-11-18T05:16:38;99774.78;;;9.00;100.00
11440;BME280;5776;51.814;4.510;2022-11-18T05:19:04;99770.44;;;8.99;100.00
11440;BME280;5776;51.814;4.510;2022-11-18T05:21:30;99766.94;;;8.99;100.00
11440;BME280;5776;51.814;4.510;2022-11-18T05:24:00;99771.84;;;8.97;100.00
11440;BME280;5776;51.814;4.510;2022-11-18T05:26:27;99785.38;;;8.97;100.00
11440;BME280;5776;51.814;4.510;2022-11-18T05:28:53;99785.09;;;8.98;100.00
11440;BME280;5776;51.814;4.510;2022-11-18T05:31:19;99796.22;;;8.97;100.00
11440;BME280;5776;51.814;4.510;2022-11-18T05:33:45;99798.44;;;8.95;100.00
11440;BME280;5776;51.814;4.510;2022-11-18T05:36:13;99803.56;;;8.96;100.00
11440;BME280;5776;51.814;4.510;2022-11-18T05:38:39;99796.84;;;8.94;100.00
11440;BME280;5776;51.814;4.510;2022-11-18T05:41:06;99797.91;;;8.93;100.00
11440;BME280;5776;51.814;4.510;2022-11-18T05:43:33;99803.84;;;8.95;100.00
11440;BME280;5776;51.814;4.510;2022-11-18T05:46:00;99805.47;;;8.96;100.00
11440;BME280;5776;51.814;4.510;2022-11-18T05:48:26;99813.88;;;8.94;100.00
11440;BME280;5776;51.814;4.510;2022-11-18T05:50:53;99808.75;;;8.93;100.00
11440;BME280;5776;51.814;4.510;2022-11-18T05:53:21;99813.38;;;8.92;100.00
11440;BME280;5776;51.814;4.510;2022-11-18T05:55:57;99816.28;;;8.96;100.00
11440;BME280;5776;51.814;4.510;2022-11-18T05:58:25;99812.88;;;8.90;100.00
11440;BME280;5776;51.814;4.510;2022-11-18T06:00:54;99822.09;;;8.89;100.00
11440;BME280;5776;51.814;4.510;2022-11-18T06:03:24;99826.72;;;8.89;100.00
11440;BME280;5776;51.814;4.510;2022-11-18T06:05:55;99820.81;;;8.86;100.00
11440;BME280;5776;51.814;4.510;2022-11-18T06:08:25;99828.94;;;8.86;100.00
11440;BME280;5776;51.814;4.510;2022-11-18T06:10:54;99825.09;;;8.87;100.00
11440;BME280;5776;51.814;4.510;2022-11-18T06:13:26;99827.34;;;8.85;100.00
11440;BME280;5776;51.814;4.510;2022-11-18T06:15:55;99832.75;;;8.85;100.00
11440;BME280;5776;51.814;4.510;2022-11-18T06:18:26;99842.47;;;8.86;100.00
11440;BME280;5776;51.814;4.510;2022-11-18T06:20:55;99839.75;;;8.86;100.00
11440;BME280;5776;51.814;4.510;2022-11-18T06:23:28;99845.97;;;8.87;100.00
11440;BME280;5776;51.814;4.510;2022-11-18T06:25:54;99849.00;;;8.85;100.00
11440;BME280;5776;51.814;4.510;2022-11-18T06:28:21;99849.00;;;8.85;100.00
11440;BME280;5776;51.814;4.510;2022-11-18T06:30:47;99854.09;;;8.87;100.00
11440;BME280;5776;51.814;4.510;2022-11-18T06:33:13;99860.31;;;8.87;100.00
11440;BME280;5776;51.814;4.510;2022-11-18T06:35:41;99857.59;;;8.87;100.00
11440;BME280;5776;51.814;4.510;2022-11-18T06:38:07;99867.63;;;8.87;100.00
11440;BME280;5776;51.814;4.510;2022-11-18T06:40:33;99866.84;;;8.86;100.00
11440;BME280;5776;51.814;4.510;2022-11-18T06:43:07;99876.56;;;8.87;100.00
11440;BME280;5776;51.814;4.510;2022-11-18T06:45:52;99878.47;;;8.87;100.00
11440;BME280;5776;51.814;4.510;2022-11-18T06:48:36;99885.00;;;8.86;100.00
11440;BME280;5776;51.814;4.510;2022-11-18T06:51:06;99885.00;;;8.86;100.00
11440;BME280;5776;51.814;4.510;2022-11-18T06:53:33;99888.69;;;8.90;100.00
11440;BME280;5776;51.814;4.510;2022-11-18T06:56:03;99893.31;;;8.90;100.00
11440;BME280;5776;51.814;4.510;2022-11-18T06:58:29;99894.41;;;8.89;100.00
11440;BME280;5776;51.814;4.510;2022-11-18T07:00:55;99896.34;;;8.88;100.00
11440;BME280;5776;51.814;4.510;2022-11-18T07:03:21;99906.34;;;8.87;100.00
11440;BME280;5776;51.814;4.510;2022-11-18T07:05:47;99902.84;;;8.87;100.00
11440;BME280;5776;51.814;4.510;2022-11-18T07:08:13;99910.66;;;8.89;100.00
11440;BME280;5776;51.814;4.510;2022-11-18T07:10:39;99912.25;;;8.90;100.00
11440;BME280;5776;51.814;4.510;2022-11-18T07:13:05;99921.19;;;8.90;100.00
11440;BME280;5776;51.814;4.510;2022-11-18T07:15:32;99920.38;;;8.90;100.00
11440;BME280;5776;51.814;4.510;2022-11-18T07:17:58;99931.22;;;8.90;100.00
11440;BME280;5776;51.814;4.510;2022-11-18T07:20:24;99932.84;;;8.91;100.00
11440;BME280;5776;51.814;4.510;2022-11-18T07:22:53;99933.63;;;8.91;100.00
11440;BME280;5776;51.814;4.510;2022-11-18T07:25:19;99939.06;;;8.91;100.00
11440;BME280;5776;51.814;4.510;2022-11-18T07:27:45;99942.56;;;8.92;100.00
11440;BME280;5776;51.814;4.510;2022-11-18T07:30:12;99956.09;;;8.92;100.00
11440;BME280;5776;51.814;4.510;2022-11-18T07:32:38;99956.91;;;8.92;100.00
11440;BME280;5776;51.814;4.510;2022-11-18T07:35:04;99956.91;;;8.92;100.00
11440;BME280;5776;51.814;4.510;2022-11-18T07:37:30;99962.03;;;8.94;100.00
11440;BME280;5776;51.814;4.510;2022-11-18T07:39:55;99966.31;;;8.95;100.00
11440;BME280;5776;51.814;4.510;2022-11-18T07:42:26;99971.75;;;8.95;100.00
11440;BME280;5776;51.814;4.510;2022-11-18T07:44:51;99971.47;;;8.96;100.00
11440;BME280;5776;51.814;4.510;2022-11-18T07:47:17;99973.38;;;8.96;100.00
11440;BME280;5776;51.814;4.510;2022-11-18T07:49:43;99975.75;;;8.97;100.00
11440;BME280;5776;51.814;4.510;2022-11-18T07:52:09;99978.97;;;8.99;100.00
11440;BME280;5776;51.814;4.510;2022-11-18T07:54:35;99980.59;;;9.00;100.00
11440;BME280;5776;51.814;4.510;2022-11-18T07:57:00;99981.41;;;9.01;100.00
11440;BME280;5776;51.814;4.510;2022-11-18T07:59:26;99985.19;;;9.00;100.00
11440;BME280;5776;51.814;4.510;2022-11-18T08:01:52;99993.31;;;9.00;100.00
11440;BME280;5776;51.814;4.510;2022-11-18T08:04:18;99997.66;;;9.01;100.00
11440;BME280;5776;51.814;4.510;2022-11-18T08:06:44;99994.63;;;9.02;100.00
11440;BME280;5776;51.814;4.510;2022-11-18T08:09:10;100004.84;;;8.92;100.00
11440;BME280;5776;51.814;4.510;2022-11-18T08:11:36;100008.06;;;8.94;100.00
11440;BME280;5776;51.814;4.510;2022-11-18T08:14:02;100012.03;;;8.82;100.00
11440;BME280;5776;51.814;4.510;2022-11-18T08:16:29;100018.03;;;8.79;100.00
11440;BME280;5776;51.814;4.510;2022-11-18T08:18:55;100024.56;;;8.78;100.00
11440;BME280;5776;51.814;4.510;2022-11-18T08:21:22;100021.63;;;8.75;100.00
11440;BME280;5776;51.814;4.510;2022-11-18T08:23:53;100028.34;;;8.77;100.00
11440;BME280;5776;51.814;4.510;2022-11-18T08:26:20;100036.19;;;8.79;100.00
11440;BME280;5776;51.814;4.510;2022-11-18T08:28:46;100029.47;;;8.76;100.00
11440;BME280;5776;51.814;4.510;2022-11-18T08:31:18;100036.28;;;8.74;100.00
11440;BME280;5776;51.814;4.510;2022-11-18T08:33:45;100043.28;;;8.75;100.00
11440;BME280;5776;51.814;4.510;2022-11-18T08:36:16;100042.50;;;8.74;100.00
11440;BME280;5776;51.814;4.510;2022-11-18T08:38:43;100048.19;;;8.73;100.00
11440;BME280;5776;51.814;4.510;2022-11-18T08:41:18;100053.31;;;8.74;100.00
11440;BME280;5776;51.814;4.510;2022-11-18T08:43:45;100047.31;;;8.77;100.00
11440;BME280;5776;51.814;4.510;2022-11-18T08:46:11;100045.13;;;8.79;100.00
11440;BME280;5776;51.814;4.510;2022-11-18T08:48:37;100052.97;;;8.81;100.00
11440;BME280;5776;51.814;4.510;2022-11-18T08:51:03;100053.16;;;8.84;100.00
11440;BME280;5776;51.814;4.510;2022-11-18T08:53:29;100054.47;;;8.87;100.00
11440;BME280;5776;51.814;4.510;2022-11-18T08:55:59;100054.56;;;8.82;100.00
11440;BME280;5776;51.814;4.510;2022-11-18T08:58:26;100055.16;;;8.79;100.00
11440;BME280;5776;51.814;4.510;2022-11-18T09:00:52;100061.69;;;8.78;100.00
11440;BME280;5776;51.814;4.510;2022-11-18T09:03:18;100066.25;;;8.77;100.00
11440;BME280;5776;51.814;4.510;2022-11-18T09:05:44;100067.38;;;8.76;100.00
11440;BME280;5776;51.814;4.510;2022-11-18T09:08:10;100076.53;;;8.80;100.00
11440;BME280;5776;51.814;4.510;2022-11-18T09:10:36;100068.81;;;8.87;100.00
11440;BME280;5776;51.814;4.510;2022-11-18T09:13:03;100075.97;;;8.97;100.00
11440;BME280;5776;51.814;4.510;2022-11-18T09:15:29;100076.72;;;9.03;100.00
11440;BME280;5776;51.814;4.510;2022-11-18T09:17:56;100082.34;;;9.06;100.00
11440;BME280;5776;51.814;4.510;2022-11-18T09:20:23;100083.66;;;9.09;100.00
11440;BME280;5776;51.814;4.510;2022-11-18T09:22:49;100084.16;;;9.11;100.00
11440;BME280;5776;51.814;4.510;2022-11-18T09:25:15;100081.13;;;9.13;100.00
11440;BME280;5776;51.814;4.510;2022-11-18T09:27:41;100081.97;;;9.13;100.00
11440;BME280;5776;51.814;4.510;2022-11-18T09:30:08;100083.56;;;9.14;100.00
11440;BME280;5776;51.814;4.510;2022-11-18T09:32:34;100086.78;;;9.16;100.00
11440;BME280;5776;51.814;4.510;2022-11-18T09:35:00;100084.06;;;9.16;100.00
11440;BME280;5776;51.814;4.510;2022-11-18T09:37:26;100088.38;;;9.17;100.00
11440;BME280;5776;51.814;4.510;2022-11-18T09:39:51;100090.00;;;9.18;100.00
11440;BME280;5776;51.814;4.510;2022-11-18T09:47:40;100097.53;;;9.21;100.00
11440;BME280;5776;51.814;4.510;2022-11-18T09:50:11;100115.09;;;9.24;100.00
11440;BME280;5776;51.814;4.510;2022-11-18T09:52:46;100109.69;;;9.24;100.00
11440;BME280;5776;51.814;4.510;2022-11-18T09:55:15;100114.00;;;9.25;100.00
11440;BME280;5776;51.814;4.510;2022-11-18T09:57:44;100122.13;;;9.25;100.00
11440;BME280;5776;51.814;4.510;2022-11-18T10:00:15;100127.25;;;9.26;100.00
11440;BME280;5776;51.814;4.510;2022-11-18T10:05:18;100134.25;;;9.27;100.00
11440;BME280;5776;51.814;4.510;2022-11-18T10:10:29;100138.28;;;9.30;100.00
11440;BME280;5776;51.814;4.510;2022-11-18T10:13:14;100141.00;;;9.30;100.00
11440;BME280;5776;51.814;4.510;2022-11-18T10:15:58;100147.25;;;9.30;100.00
11440;BME280;5776;51.814;4.510;2022-11-18T10:18:41;100148.84;;;9.32;100.00
11440;BME280;5776;51.814;4.510;2022-11-18T10:21:27;100153.16;;;9.33;100.00
11440;BME280;5776;51.814;4.510;2022-11-18T10:24:07;100153.47;;;9.31;100.00
11440;BME280;5776;51.814;4.510;2022-11-18T10:26:40;100154.44;;;9.21;100.00
11440;BME280;5776;51.814;4.510;2022-11-18T10:29:06;100154.00;;;9.14;100.00
11440;BME280;5776;51.814;4.510;2022-11-18T10:31:39;100156.72;;;9.14;100.00
11440;BME280;5776;51.814;4.510;2022-11-18T10:34:17;100160.22;;;9.15;100.00
11440;BME280;5776;51.814;4.510;2022-11-18T10:36:57;100156.72;;;9.14;100.00
11440;BME280;5776;51.814;4.510;2022-11-18T10:39:23;100162.13;;;9.14;100.00
11440;BME280;5776;51.814;4.510;2022-11-18T10:41:57;100165.34;;;9.16;100.00
11440;BME280;5776;51.814;4.510;2022-11-18T10:46:53;100159.06;;;9.21;100.00
11440;BME280;5776;51.814;4.510;2022-11-18T10:49:19;100160.44;;;9.18;100.00
11440;BME280;5776;51.814;4.510;2022-11-18T10:52:07;100161.44;;;9.22;100.00
11440;BME280;5776;51.814;4.510;2022-11-18T10:54:37;100163.28;;;9.27;100.00
11440;BME280;5776;51.814;4.510;2022-11-18T10:57:20;100165.69;;;9.28;100.00
11440;BME280;5776;51.814;4.510;2022-11-18T10:59:55;100165.63;;;9.34;100.00
11440;BME280;5776;51.814;4.510;2022-11-18T11:04:49;100167.72;;;9.37;100.00
11440;BME280;5776;51.814;4.510;2022-11-18T11:07:23;100180.16;;;9.38;100.00
11440;BME280;5776;51.814;4.510;2022-11-18T11:12:39;100176.97;;;9.36;100.00
11440;BME280;5776;51.814;4.510;2022-11-18T11:15:16;100187.22;;;9.39;100.00
11440;BME280;5776;51.814;4.510;2022-11-18T11:18:05;100187.72;;;9.41;100.00
11440;BME280;5776;51.814;4.510;2022-11-18T11:20:52;100188.81;;;9.40;100.00
11440;BME280;5776;51.814;4.510;2022-11-18T11:23:18;100190.13;;;9.42;100.00
11440;BME280;5776;51.814;4.510;2022-11-18T11:25:58;100194.16;;;9.45;100.00
11440;BME280;5776;51.814;4.510;2022-11-18T11:33:25;100194.16;;;9.45;100.00
11440;BME280;5776;51.814;4.510;2022-11-18T11:50:32;100219.66;;;9.44;100.00
11440;BME280;5776;51.814;4.510;2022-11-18T11:56:35;100215.63;;;9.41;100.00
11440;BME280;5776;51.814;4.510;2022-11-18T11:59:26;100219.13;;;9.42;100.00
11440;BME280;5776;51.814;4.510;2022-11-18T12:07:44;100220.81;;;9.38;100.00
11440;BME280;5776;51.814;4.510;2022-11-18T12:10:28;100228.94;;;9.38;100.00
11440;BME280;5776;51.814;4.510;2022-11-18T12:13:31;100227.88;;;9.39;100.00
11440;BME280;5776;51.814;4.510;2022-11-18T12:19:00;100220.25;;;9.41;100.00
11440;BME280;5776;51.814;4.510;2022-11-18T12:24:36;100226.75;;;9.40;100.00
11440;BME280;5776;51.814;4.510;2022-11-18T12:27:10;100228.38;;;9.41;100.00
11440;BME280;5776;51.814;4.510;2022-11-18T12:32:41;100225.16;;;9.39;100.00
11440;BME280;5776;51.814;4.510;2022-11-18T12:40:42;100226.75;;;9.40;100.00
11440;BME280;5776;51.814;4.510;2022-11-18T12:48:51;100244.84;;;9.44;100.00
11440;BME280;5776;51.814;4.510;2022-11-18T12:53:46;100248.16;;;9.41;100.00
11440;BME280;5776;51.814;4.510;2022-11-18T12:56:20;100239.22;;;9.41;100.00
11440;BME280;5776;51.814;4.510;2022-11-18T12:58:55;100245.44;;;9.41;100.00
11440;BME280;5776;51.814;4.510;2022-11-18T13:01:24;100253.25;;;9.43;100.00
11440;BME280;5776;51.814;4.510;2022-11-18T13:03:51;100248.16;;;9.41;100.00
11440;BME280;5776;51.814;4.510;2022-11-18T13:06:27;100255.97;;;9.43;100.00
11440;BME280;5776;51.814;4.510;2022-11-18T13:08:58;100257.88;;;9.42;100.00
11440;BME280;5776;51.814;4.510;2022-11-18T13:11:41;100255.97;;;9.43;100.00
11440;BME280;5776;51.814;4.510;2022-11-18T13:14:16;100254.38;;;9.42;100.00
11440;BME280;5776;51.814;4.510;2022-11-18T13:17:02;100262.50;;;9.42;100.00
11440;BME280;5776;51.814;4.510;2022-11-18T13:19:58;100261.41;;;9.43;100.00
11440;BME280;5776;51.814;4.510;2022-11-18T13:22:24;100261.13;;;9.44;100.00
11440;BME280;5776;51.814;4.510;2022-11-18T13:25:24;100266.53;;;9.44;100.00
11440;BME280;5776;51.814;4.510;2022-11-18T13:31:01;100267.34;;;9.45;100.00
11440;BME280;5776;51.814;4.510;2022-11-18T13:33:34;100271.97;;;9.44;100.00
11440;BME280;5776;51.814;4.510;2022-11-18T13:36:00;100266.53;;;9.44;100.00
11440;BME280;5776;51.814;4.510;2022-11-18T13:38:26;100271.44;;;9.42;100.00
11440;BME280;5776;51.814;4.510;2022-11-18T13:40:52;100268.97;;;9.46;100.00
11440;BME280;5776;51.814;4.510;2022-11-18T13:43:32;100274.50;;;9.55;100.00
11440;BME280;5776;51.814;4.510;2022-11-18T13:46:00;100286.16;;;9.55;100.00
11440;BME280;5776;51.814;4.510;2022-11-18T13:48:28;100279.22;;;9.49;100.00
11440;BME280;5776;51.814;4.510;2022-11-18T13:50:57;100280.44;;;9.57;100.00
11440;BME280;5776;51.814;4.510;2022-11-18T13:53:36;100286.75;;;9.52;100.00
11440;BME280;5776;51.814;4.510;2022-11-18T14:01:22;100290.50;;;9.56;100.00
11440;BME280;5776;51.814;4.510;2022-11-18T14:03:54;100285.66;;;9.53;100.00
11440;BME280;5776;51.814;4.510;2022-11-18T14:09:04;100294.09;;;9.51;100.00
11440;BME280;5776;51.814;4.510;2022-11-18T14:11:39;100296.56;;;9.48;100.00
11440;BME280;5776;51.814;4.510;2022-11-18T14:14:07;100292.25;;;9.47;100.00
11440;BME280;5776;51.814;4.510;2022-11-18T14:16:39;100297.31;;;9.54;100.00
11440;BME280;5776;51.814;4.510;2022-11-18T14:19:09;100299.50;;;9.51;100.00
11440;BME280;5776;51.814;4.510;2022-11-18T14:21:37;100305.22;;;9.50;100.00
11440;BME280;5776;51.814;4.510;2022-11-18T14:24:03;100305.72;;;9.52;100.00
11440;BME280;5776;51.814;4.510;2022-11-18T14:26:32;100306.75;;;9.56;100.00
11440;BME280;5776;51.814;4.510;2022-11-18T14:29:21;100304.19;;;9.65;100.00
11440;BME280;5776;51.814;4.510;2022-11-18T14:34:36;100311.38;;;9.56;100.00
11440;BME280;5776;51.814;4.510;2022-11-18T14:37:08;100314.91;;;9.56;100.00
11440;BME280;5776;51.814;4.510;2022-11-18T14:39:37;100310.56;;;9.55;100.00
11440;BME280;5776;51.814;4.510;2022-11-18T14:42:03;100326.03;;;9.55;100.00
11440;BME280;5776;51.814;4.510;2022-11-18T14:44:31;100324.69;;;9.52;100.00
11440;BME280;5776;51.814;4.510;2022-11-18T14:47:02;100326.81;;;9.55;100.00
11440;BME280;5776;51.814;4.510;2022-11-18T14:49:29;100326.34;;;9.53;100.00
11440;BME280;5776;51.814;4.510;2022-11-18T14:51:57;100330.06;;;9.57;100.00
11440;BME280;5776;51.814;4.510;2022-11-18T14:54:25;100332.84;;;9.71;100.00
11440;BME280;5776;51.814;4.510;2022-11-18T14:56:52;100332.75;;;9.76;100.00
11440;BME280;5776;51.814;4.510;2022-11-18T14:59:20;100339.19;;;9.80;100.00
11440;BME280;5776;51.814;4.510;2022-11-18T15:01:46;100346.75;;;9.83;100.00
11440;BME280;5776;51.814;4.510;2022-11-18T15:04:13;100345.13;;;9.82;100.00
11440;BME280;5776;51.814;4.510;2022-11-18T15:06:40;100344.84;;;9.84;100.00
11440;BME280;5776;51.814;4.510;2022-11-18T15:09:06;100343.75;;;9.85;100.00
11440;BME280;5776;51.814;4.510;2022-11-18T15:11:33;100346.44;;;9.85;100.00
11440;BME280;5776;51.814;4.510;2022-11-18T15:13:59;100350.47;;;9.87;100.00
11440;BME280;5776;51.814;4.510;2022-11-18T15:16:28;100351.28;;;9.88;100.00
11440;BME280;5776;51.814;4.510;2022-11-18T15:18:58;100356.22;;;9.86;100.00